createdAt,value
2018-04-17T00:00:02.837Z,79.17
2018-04-17T00:01:07.527Z,79.25
2018-04-17T00:02:12.219Z,79.29
2018-04-17T00:03:17.751Z,79.31
2018-04-17T00:04:22.441Z,79.44
2018-04-17T00:05:27.072Z,79.59
2018-04-17T00:06:32.096Z,79.64
2018-04-17T00:07:36.850Z,79.70
2018-04-17T00:08:41.397Z,79.69
2018-04-17T00:09:45.986Z,79.71
2018-04-17T00:10:50.536Z,79.79
2018-04-17T00:11:55.109Z,79.90
2018-04-17T00:12:59.990Z,79.98
2018-04-17T00:14:04.506Z,80.04
2018-04-17T00:15:09.048Z,80.17
2018-04-17T00:16:13.632Z,80.21
2018-04-17T00:17:18.190Z,80.31
2018-04-17T00:18:22.843Z,80.43
2018-04-17T00:19:27.393Z,80.55
2018-04-17T00:20:35.081Z,80.60
2018-04-17T00:21:39.588Z,80.58
2018-04-17T00:22:44.208Z,80.43
2018-04-17T00:23:48.784Z,80.38
2018-04-17T00:24:53.470Z,80.28
2018-04-17T00:25:58.388Z,80.41
2018-04-17T00:27:02.963Z,80.47
2018-04-17T00:28:07.535Z,80.66
2018-04-17T00:29:12.058Z,80.83
2018-04-17T00:30:16.592Z,80.89
2018-04-17T00:31:21.184Z,80.97
2018-04-17T00:32:26.110Z,81.06
2018-04-17T00:33:30.716Z,81.18
2018-04-17T00:34:35.316Z,81.30
2018-04-17T00:35:39.865Z,81.34
2018-04-17T00:36:44.383Z,81.35
2018-04-17T00:37:48.932Z,81.28
2018-04-17T00:38:53.663Z,81.36
2018-04-17T00:39:58.059Z,81.51
2018-04-17T00:41:02.489Z,81.66
2018-04-17T00:42:06.898Z,81.77
2018-04-17T00:43:11.337Z,81.87
2018-04-17T00:44:15.901Z,81.95
2018-04-17T00:45:20.741Z,82.02
2018-04-17T00:46:25.357Z,82.03
2018-04-17T00:47:29.928Z,82.03
2018-04-17T00:48:34.468Z,81.97
2018-04-17T00:49:39.017Z,81.80
2018-04-17T00:50:43.628Z,81.64
2018-04-17T00:51:48.554Z,81.48
2018-04-17T00:52:53.210Z,81.47
2018-04-17T00:53:57.979Z,81.54
2018-04-17T00:55:02.552Z,81.56
2018-04-17T00:56:07.166Z,81.60
2018-04-17T00:57:11.778Z,81.40
2018-04-17T00:58:16.522Z,81.23
2018-04-17T00:59:21.059Z,81.13
2018-04-17T01:00:25.525Z,81.14
2018-04-17T01:01:30.021Z,81.29
2018-04-17T01:02:34.740Z,81.20
2018-04-17T01:03:39.370Z,81.21
2018-04-17T01:04:44.620Z,81.38
2018-04-17T01:05:49.578Z,81.52
2018-04-17T01:06:54.082Z,81.65
2018-04-17T01:07:58.615Z,81.77
2018-04-17T01:09:03.413Z,81.86
2018-04-17T01:10:07.935Z,81.94
2018-04-17T01:11:12.738Z,82.01
2018-04-17T01:12:17.279Z,82.12
2018-04-17T01:13:21.713Z,82.23
2018-04-17T01:14:26.170Z,82.23
2018-04-17T01:15:30.621Z,82.27
2018-04-17T01:16:35.041Z,82.34
2018-04-17T01:17:39.776Z,82.49
2018-04-17T01:18:44.338Z,82.55
2018-04-17T01:19:48.862Z,82.56
2018-04-17T01:20:53.392Z,82.62
2018-04-17T01:21:57.912Z,82.70
2018-04-17T01:23:02.532Z,82.78
2018-04-17T01:24:07.399Z,82.87
2018-04-17T01:25:12.017Z,83.03
2018-04-17T01:26:16.657Z,83.15
2018-04-17T01:27:21.270Z,83.20
2018-04-17T01:28:26.781Z,83.26
2018-04-17T01:29:31.399Z,83.36
2018-04-17T01:30:36.295Z,83.46
2018-04-17T01:31:40.891Z,83.49
2018-04-17T01:32:45.489Z,83.54
2018-04-17T01:33:50.138Z,83.55
2018-04-17T01:34:54.743Z,83.57
2018-04-17T01:35:59.376Z,83.61
2018-04-17T01:37:04.230Z,83.73
2018-04-17T01:38:08.837Z,83.81
2018-04-17T01:39:13.443Z,83.87
2018-04-17T01:40:18.035Z,83.97
2018-04-17T01:41:22.694Z,83.93
2018-04-17T01:42:27.341Z,83.97
2018-04-17T01:43:32.243Z,83.93
2018-04-17T01:44:36.868Z,84.03
2018-04-17T01:45:41.483Z,84.03
2018-04-17T01:46:46.078Z,84.11
2018-04-17T01:47:50.717Z,84.13
2018-04-17T01:48:55.307Z,84.12
2018-04-17T01:50:00.211Z,84.19
2018-04-17T01:51:04.830Z,84.20
2018-04-17T01:52:09.411Z,84.22
2018-04-17T01:53:14.075Z,84.23
2018-04-17T01:54:18.672Z,84.18
2018-04-17T01:55:23.281Z,84.20
2018-04-17T01:56:28.246Z,84.21
2018-04-17T01:57:33.007Z,84.25
2018-04-17T01:58:37.674Z,84.24
2018-04-17T01:59:42.331Z,84.32
2018-04-17T02:00:47.043Z,84.35
2018-04-17T02:01:51.730Z,84.44
2018-04-17T02:02:57.044Z,84.55
2018-04-17T02:04:01.698Z,84.59
2018-04-17T02:05:06.242Z,84.64
2018-04-17T02:06:10.695Z,84.73
2018-04-17T02:07:15.305Z,84.79
2018-04-17T02:08:19.863Z,84.86
2018-04-17T02:09:24.786Z,84.92
2018-04-17T02:10:29.370Z,85.00
2018-04-17T02:11:33.968Z,84.94
2018-04-17T02:12:38.575Z,85.00
2018-04-17T02:13:43.187Z,85.03
2018-04-17T02:14:47.762Z,85.09
2018-04-17T02:15:52.654Z,85.16
2018-04-17T02:16:57.230Z,85.25
2018-04-17T02:18:01.809Z,85.26
2018-04-17T02:19:06.483Z,85.32
2018-04-17T02:20:11.136Z,85.36
2018-04-17T02:21:15.734Z,85.42
2018-04-17T02:22:21.101Z,85.50
2018-04-17T02:23:25.786Z,85.59
2018-04-17T02:24:30.472Z,85.63
2018-04-17T02:25:35.186Z,85.66
2018-04-17T02:26:39.769Z,85.71
2018-04-17T02:27:44.443Z,85.67
2018-04-17T02:28:49.399Z,85.64
2018-04-17T02:29:54.139Z,85.54
2018-04-17T02:30:58.785Z,85.55
2018-04-17T02:32:03.512Z,85.61
2018-04-17T02:33:08.141Z,85.59
2018-04-17T02:34:12.731Z,85.65
2018-04-17T02:35:17.559Z,85.65
2018-04-17T02:36:22.219Z,85.66
2018-04-17T02:37:27.045Z,85.64
2018-04-17T02:38:31.695Z,85.62
2018-04-17T02:39:36.361Z,85.55
2018-04-17T02:40:41.171Z,85.55
2018-04-17T02:41:45.786Z,85.60
2018-04-17T02:42:50.405Z,85.64
2018-04-17T02:43:55.054Z,85.64
2018-04-17T02:44:59.623Z,85.69
2018-04-17T02:46:04.184Z,85.74
2018-04-17T02:47:08.833Z,85.79
2018-04-17T02:48:13.735Z,85.81
2018-04-17T02:49:18.281Z,85.84
2018-04-17T02:50:22.826Z,85.85
2018-04-17T02:51:27.391Z,85.79
2018-04-17T02:52:31.983Z,85.76
2018-04-17T02:53:36.564Z,85.76
2018-04-17T02:54:41.457Z,85.73
2018-04-17T02:55:46.035Z,85.71
2018-04-17T02:56:50.645Z,85.70
2018-04-17T02:57:55.277Z,85.67
2018-04-17T02:58:59.767Z,85.66
2018-04-17T03:00:04.315Z,85.58
2018-04-17T03:01:09.183Z,85.55
2018-04-17T03:02:13.793Z,85.58
2018-04-17T03:03:18.416Z,85.68
2018-04-17T03:04:22.981Z,85.73
2018-04-17T03:05:27.583Z,85.71
2018-04-17T03:06:32.142Z,85.57
2018-04-17T03:07:37.009Z,85.40
2018-04-17T03:08:41.473Z,85.21
2018-04-17T03:09:45.922Z,85.15
2018-04-17T03:10:50.339Z,85.15
2018-04-17T03:11:54.980Z,85.17
2018-04-17T03:12:59.440Z,85.31
2018-04-17T03:14:04.324Z,85.44
2018-04-17T03:15:09.000Z,85.51
2018-04-17T03:16:13.477Z,85.62
2018-04-17T03:17:17.977Z,85.65
2018-04-17T03:18:22.480Z,85.73
2018-04-17T03:19:27.141Z,85.83
2018-04-17T03:20:32.318Z,85.83
2018-04-17T03:21:37.763Z,85.94
2018-04-17T03:22:42.273Z,86.00
2018-04-17T03:23:46.621Z,86.06
2018-04-17T03:24:51.114Z,86.07
2018-04-17T03:25:55.654Z,86.09
2018-04-17T03:27:00.483Z,86.03
2018-04-17T03:28:04.888Z,85.96
2018-04-17T03:29:09.442Z,85.87
2018-04-17T03:30:13.951Z,85.68
2018-04-17T03:31:18.438Z,85.68
2018-04-17T03:32:22.957Z,85.78
2018-04-17T03:33:28.396Z,85.84
2018-04-17T03:34:32.995Z,85.82
2018-04-17T03:35:37.547Z,85.82
2018-04-17T03:36:42.179Z,85.82
2018-04-17T03:37:46.783Z,85.77
2018-04-17T03:38:51.343Z,85.86
2018-04-17T03:39:56.279Z,85.97
2018-04-17T03:41:00.897Z,86.11
2018-04-17T03:42:05.534Z,86.17
2018-04-17T03:43:10.118Z,86.21
2018-04-17T03:44:14.697Z,86.31
2018-04-17T03:45:19.290Z,86.32
2018-04-17T03:46:23.858Z,86.32
2018-04-17T03:47:28.380Z,86.38
2018-04-17T03:48:33.042Z,86.38
2018-04-17T03:49:37.591Z,86.39
2018-04-17T03:50:42.202Z,86.34
2018-04-17T03:51:47.112Z,86.25
2018-04-17T03:52:51.699Z,86.18
2018-04-17T03:53:56.210Z,86.18
2018-04-17T03:55:00.738Z,86.19
2018-04-17T03:56:05.329Z,86.25
2018-04-17T03:57:09.908Z,86.21
2018-04-17T03:58:14.873Z,86.23
2018-04-17T03:59:19.521Z,86.24
2018-04-17T04:00:24.211Z,86.27
2018-04-17T04:01:28.893Z,86.28
2018-04-17T04:02:33.538Z,86.29
2018-04-17T04:03:38.207Z,86.37
2018-04-17T04:04:43.173Z,86.40
2018-04-17T04:05:47.851Z,86.40
2018-04-17T04:06:52.530Z,86.42
2018-04-17T04:07:57.198Z,86.43
2018-04-17T04:09:01.832Z,86.55
2018-04-17T04:10:06.483Z,86.66
2018-04-17T04:11:11.505Z,86.78
2018-04-17T04:12:16.180Z,86.91
2018-04-17T04:13:21.101Z,86.92
2018-04-17T04:14:25.712Z,86.89
2018-04-17T04:15:30.458Z,86.91
2018-04-17T04:16:39.610Z,86.92
2018-04-17T04:19:56.455Z,86.97
2018-04-17T04:23:09.511Z,86.94
2018-04-17T04:25:24.443Z,86.88
2018-04-17T04:26:29.791Z,86.86
2018-04-17T04:27:34.572Z,86.89
2018-04-17T04:28:39.332Z,86.83
2018-04-17T04:29:44.423Z,86.71
2018-04-17T04:30:49.100Z,86.75
2018-04-17T04:31:53.832Z,86.75
2018-04-17T04:32:58.530Z,86.86
2018-04-17T04:34:03.391Z,86.82
2018-04-17T04:35:08.124Z,86.83
2018-04-17T04:36:13.366Z,86.83
2018-04-17T04:37:18.242Z,86.85
2018-04-17T04:38:22.928Z,86.88
2018-04-17T04:39:27.627Z,86.97
2018-04-17T04:40:32.288Z,87.01
2018-04-17T04:41:36.976Z,86.97
2018-04-17T04:42:41.993Z,86.94
2018-04-17T04:43:46.658Z,86.91
2018-04-17T04:44:51.341Z,86.87
2018-04-17T04:45:56.078Z,86.91
2018-04-17T04:47:00.644Z,86.90
2018-04-17T04:48:05.179Z,86.93
2018-04-17T04:49:10.224Z,87.04
2018-04-17T04:50:14.821Z,87.06
2018-04-17T04:51:19.393Z,87.12
2018-04-17T04:52:24.003Z,87.12
2018-04-17T04:53:28.779Z,87.18
2018-04-17T04:54:33.547Z,87.20
2018-04-17T04:55:38.369Z,87.23
2018-04-17T04:56:42.955Z,87.29
2018-04-17T04:57:47.474Z,87.31
2018-04-17T04:58:52.054Z,87.28
2018-04-17T04:59:56.788Z,87.27
2018-04-17T05:01:01.485Z,87.24
2018-04-17T05:02:06.328Z,87.19
2018-04-17T05:03:10.899Z,87.24
2018-04-17T05:04:15.488Z,87.30
2018-04-17T05:05:20.102Z,87.39
2018-04-17T05:06:24.791Z,87.43
2018-04-17T05:07:29.453Z,87.41
2018-04-17T05:08:34.436Z,87.40
2018-04-17T05:09:39.151Z,87.30
2018-04-17T05:10:43.835Z,87.18
2018-04-17T05:11:48.527Z,87.12
2018-04-17T05:12:53.292Z,87.11
2018-04-17T05:13:57.963Z,87.07
2018-04-17T05:15:02.838Z,86.96
2018-04-17T05:16:07.685Z,86.78
2018-04-17T05:17:12.391Z,86.62
2018-04-17T05:18:16.863Z,86.63
2018-04-17T05:19:21.374Z,86.66
2018-04-17T05:20:26.731Z,86.68
2018-04-17T05:21:31.634Z,86.69
2018-04-17T05:22:36.292Z,86.68
2018-04-17T05:23:40.815Z,86.57
2018-04-17T05:24:45.320Z,86.55
2018-04-17T05:25:49.872Z,86.53
2018-04-17T05:26:55.066Z,86.50
2018-04-17T05:28:00.191Z,86.63
2018-04-17T05:29:04.793Z,86.72
2018-04-17T05:30:09.304Z,86.75
2018-04-17T05:31:13.872Z,86.75
2018-04-17T05:32:18.652Z,86.73
2018-04-17T05:33:23.406Z,86.67
2018-04-17T05:34:28.569Z,86.70
2018-04-17T05:35:33.308Z,86.69
2018-04-17T05:36:38.054Z,86.67
2018-04-17T05:37:42.745Z,86.65
2018-04-17T05:38:47.395Z,86.63
2018-04-17T05:39:52.076Z,86.56
2018-04-17T05:40:57.069Z,86.56
2018-04-17T05:42:01.766Z,86.47
2018-04-17T05:43:06.548Z,86.44
2018-04-17T05:44:11.274Z,86.45
2018-04-17T05:45:15.995Z,86.47
2018-04-17T05:46:20.756Z,86.50
2018-04-17T05:47:25.804Z,86.42
2018-04-17T05:48:30.548Z,86.35
2018-04-17T05:49:35.225Z,86.20
2018-04-17T05:50:39.936Z,86.13
2018-04-17T05:51:44.635Z,85.98
2018-04-17T05:52:49.298Z,85.86
2018-04-17T05:53:54.557Z,85.80
2018-04-17T05:54:59.274Z,85.55
2018-04-17T05:56:04.053Z,85.36
2018-04-17T05:57:08.773Z,85.18
2018-04-17T05:58:13.469Z,85.04
2018-04-17T05:59:18.224Z,84.88
2018-04-17T06:00:23.254Z,84.59
2018-04-17T06:01:28.036Z,84.43
2018-04-17T06:02:32.676Z,84.43
2018-04-17T06:03:37.317Z,84.19
2018-04-17T06:04:42.043Z,83.97
2018-04-17T06:05:46.993Z,83.94
2018-04-17T06:06:52.118Z,83.81
2018-04-17T06:07:56.700Z,83.68
2018-04-17T06:09:01.460Z,83.61
2018-04-17T06:10:06.079Z,83.39
2018-04-17T06:11:10.718Z,83.27
2018-04-17T06:12:15.423Z,83.24
2018-04-17T06:13:20.620Z,83.00
2018-04-17T06:14:25.266Z,82.69
2018-04-17T06:15:29.843Z,82.60
2018-04-17T06:16:34.567Z,82.65
2018-04-17T06:17:39.284Z,82.56
2018-04-17T06:18:43.882Z,82.35
2018-04-17T06:19:48.857Z,82.18
2018-04-17T06:20:53.533Z,81.88
2018-04-17T06:21:58.144Z,81.58
2018-04-17T06:23:02.783Z,81.29
2018-04-17T06:24:07.580Z,81.07
2018-04-17T06:25:12.261Z,80.70
2018-04-17T06:26:17.258Z,80.63
2018-04-17T06:27:21.804Z,80.53
2018-04-17T06:28:26.310Z,80.24
2018-04-17T06:29:31.086Z,80.05
2018-04-17T06:30:36.120Z,79.61
2018-04-17T06:31:40.680Z,79.01
2018-04-17T06:32:46.443Z,78.87
2018-04-17T06:33:50.935Z,78.77
2018-04-17T06:34:55.493Z,78.66
2018-04-17T06:36:00.823Z,78.35
2018-04-17T06:37:05.415Z,78.29
2018-04-17T06:38:10.038Z,77.87
2018-04-17T06:39:14.662Z,77.71
2018-04-17T06:40:19.238Z,77.57
2018-04-17T06:41:23.853Z,76.91
2018-04-17T06:42:28.502Z,74.21
2018-04-17T06:43:33.131Z,70.56
2018-04-17T06:44:38.211Z,68.64
2018-04-17T06:45:42.969Z,68.26
2018-04-17T06:46:47.883Z,68.59
2018-04-17T06:47:52.987Z,69.42
2018-04-17T06:48:57.666Z,70.06
2018-04-17T06:50:02.412Z,70.62
2018-04-17T06:51:07.455Z,71.12
2018-04-17T06:52:12.062Z,71.70
2018-04-17T06:53:16.650Z,71.95
2018-04-17T06:54:21.227Z,72.03
2018-04-17T06:55:25.816Z,72.09
2018-04-17T06:56:30.591Z,72.01
2018-04-17T06:57:35.513Z,71.77
2018-04-17T06:58:40.102Z,71.58
2018-04-17T06:59:44.558Z,71.27
2018-04-17T07:00:48.988Z,71.11
2018-04-17T07:01:53.466Z,70.73
2018-04-17T07:02:58.061Z,70.17
2018-04-17T07:04:03.001Z,69.64
2018-04-17T07:05:07.602Z,69.29
2018-04-17T07:06:12.367Z,69.12
2018-04-17T07:07:17.095Z,69.38
2018-04-17T07:08:21.632Z,68.85
2018-04-17T07:09:27.379Z,68.79
2018-04-17T07:10:32.521Z,68.79
2018-04-17T07:11:37.360Z,68.74
2018-04-17T07:12:42.408Z,68.37
2018-04-17T07:13:47.123Z,68.12
2018-04-17T07:14:52.482Z,67.79
2018-04-17T07:15:57.327Z,67.61
2018-04-17T07:17:02.923Z,67.44
2018-04-17T07:18:07.672Z,67.27
2018-04-17T07:19:12.442Z,67.09
2018-04-17T07:20:17.109Z,66.98
2018-04-17T07:21:21.792Z,67.00
2018-04-17T07:22:26.360Z,66.44
2018-04-17T07:23:31.511Z,66.40
2018-04-17T07:24:36.353Z,66.23
2018-04-17T07:25:41.216Z,66.12
2018-04-17T07:26:46.148Z,65.53
2018-04-17T07:27:51.461Z,64.95
2018-04-17T07:28:56.701Z,64.59
2018-04-17T07:30:02.157Z,64.79
2018-04-17T07:31:07.003Z,64.69
2018-04-17T07:32:12.196Z,64.52
2018-04-17T07:33:17.552Z,64.61
2018-04-17T07:34:22.826Z,64.36
2018-04-17T07:35:29.238Z,64.29
2018-04-17T07:36:35.010Z,64.19
2018-04-17T07:37:42.203Z,64.06
2018-04-17T07:38:46.956Z,64.03
2018-04-17T07:39:51.570Z,63.78
2018-04-17T07:40:56.178Z,62.99
2018-04-17T07:42:00.799Z,62.69
2018-04-17T07:43:05.891Z,62.12
2018-04-17T07:44:12.219Z,61.89
2018-04-17T07:45:18.295Z,61.42
2018-04-17T07:46:23.850Z,60.66
2018-04-17T07:47:30.455Z,60.50
2018-04-17T07:48:51.110Z,60.07
2018-04-17T07:49:55.745Z,59.80
2018-04-17T07:51:00.388Z,59.46
2018-04-17T07:52:05.248Z,58.99
2018-04-17T07:53:10.471Z,58.65
2018-04-17T07:54:16.454Z,58.42
2018-04-17T07:55:22.371Z,58.16
2018-04-17T07:56:28.791Z,57.86
2018-04-17T07:57:34.442Z,57.41
2018-04-17T07:58:39.664Z,57.53
2018-04-17T07:59:45.187Z,57.20
2018-04-17T08:00:51.300Z,56.88
2018-04-17T08:01:56.236Z,56.69
2018-04-17T08:03:01.681Z,56.39
2018-04-17T08:04:08.067Z,56.56
2018-04-17T08:05:12.947Z,56.62
2018-04-17T08:06:18.694Z,56.29
2018-04-17T08:07:25.317Z,55.91
2018-04-17T08:08:30.069Z,55.53
2018-04-17T08:09:35.935Z,55.23
2018-04-17T08:10:41.540Z,55.27
2018-04-17T08:11:46.406Z,54.92
2018-04-17T08:12:51.902Z,55.02
2018-04-17T08:13:57.021Z,54.90
2018-04-17T08:15:03.090Z,54.62
2018-04-17T08:16:09.130Z,54.43
2018-04-17T08:17:15.801Z,54.69
2018-04-17T08:18:21.033Z,54.32
2018-04-17T08:19:26.935Z,54.21
2018-04-17T08:20:32.988Z,54.23
2018-04-17T08:21:38.215Z,53.75
2018-04-17T08:22:43.250Z,53.17
2018-04-17T08:23:49.186Z,52.86
2018-04-17T08:24:55.272Z,52.32
2018-04-17T08:26:00.228Z,52.67
2018-04-17T08:27:05.988Z,52.50
2018-04-17T08:28:11.193Z,52.26
2018-04-17T08:29:16.231Z,51.86
2018-04-17T08:30:21.599Z,51.67
2018-04-17T08:31:27.479Z,51.77
2018-04-17T08:32:32.531Z,50.75
2018-04-17T08:33:38.185Z,50.50
2018-04-17T08:34:43.898Z,50.31
2018-04-17T08:35:49.037Z,50.01
2018-04-17T08:36:54.915Z,49.65
2018-04-17T08:38:00.122Z,49.67
2018-04-17T08:39:05.348Z,49.55
2018-04-17T08:40:11.632Z,49.31
2018-04-17T08:41:17.440Z,48.75
2018-04-17T08:42:22.671Z,48.23
2018-04-17T08:43:28.800Z,47.89
2018-04-17T08:44:34.917Z,46.96
2018-04-17T08:45:41.795Z,46.88
2018-04-17T08:46:46.757Z,46.45
2018-04-17T08:47:51.748Z,46.24
2018-04-17T08:48:57.841Z,46.12
2018-04-17T08:50:03.336Z,45.93
2018-04-17T08:51:09.786Z,45.72
2018-04-17T08:52:15.563Z,45.39
2018-04-17T08:53:22.786Z,44.96
2018-04-17T08:54:29.773Z,45.42
2018-04-17T08:55:36.047Z,45.98
2018-04-17T08:56:42.763Z,45.79
2018-04-17T08:57:47.979Z,45.56
2018-04-17T08:58:52.836Z,45.14
2018-04-17T08:59:57.571Z,45.00
2018-04-17T09:01:02.358Z,45.21
2018-04-17T09:02:07.059Z,45.00
2018-04-17T09:03:12.105Z,44.39
2018-04-17T09:04:16.756Z,44.10
2018-04-17T09:05:21.408Z,44.03
2018-04-17T09:06:26.207Z,43.88
2018-04-17T09:07:30.651Z,43.68
2018-04-17T09:08:35.310Z,43.96
2018-04-17T09:09:40.373Z,43.89
2018-04-17T09:10:44.994Z,43.83
2018-04-17T09:11:49.730Z,43.54
2018-04-17T09:12:54.432Z,42.97
2018-04-17T09:13:59.040Z,42.37
2018-04-17T09:15:03.742Z,42.26
2018-04-17T09:16:08.544Z,42.40
2018-04-17T09:17:13.348Z,42.45
2018-04-17T09:18:18.198Z,41.88
2018-04-17T09:19:25.304Z,41.78
2018-04-17T09:20:30.176Z,42.27
2018-04-17T09:21:35.303Z,42.37
2018-04-17T09:22:39.868Z,42.00
2018-04-17T09:23:44.619Z,41.88
2018-04-17T09:24:49.288Z,42.01
2018-04-17T09:25:54.031Z,42.34
2018-04-17T09:26:59.036Z,43.01
2018-04-17T09:28:04.658Z,43.77
2018-04-17T09:29:09.599Z,44.01
2018-04-17T09:30:15.018Z,44.04
2018-04-17T09:31:20.386Z,44.23
2018-04-17T09:32:25.211Z,44.69
2018-04-17T09:33:29.978Z,44.95
2018-04-17T09:34:36.623Z,45.03
2018-04-17T09:35:41.505Z,45.57
2018-04-17T09:36:46.693Z,45.90
2018-04-17T09:37:51.377Z,45.79
2018-04-17T09:38:56.971Z,45.93
2018-04-17T09:40:01.626Z,45.97
2018-04-17T09:41:06.727Z,45.46
2018-04-17T09:42:11.778Z,44.50
2018-04-17T09:43:18.625Z,44.05
2018-04-17T09:44:24.037Z,43.79
2018-04-17T09:45:29.086Z,43.90
2018-04-17T09:46:34.847Z,43.88
2018-04-17T09:47:41.111Z,43.71
2018-04-17T09:48:46.575Z,43.88
2018-04-17T09:49:52.188Z,43.97
2018-04-17T09:50:58.732Z,44.08
2018-04-17T09:52:04.478Z,43.93
2018-04-17T09:53:10.391Z,43.63
2018-04-17T09:54:15.706Z,43.59
2018-04-17T09:55:21.299Z,43.52
2018-04-17T09:56:26.125Z,43.35
2018-04-17T09:57:30.764Z,43.16
2018-04-17T09:58:38.890Z,43.08
2018-04-17T09:59:43.642Z,43.02
2018-04-17T10:00:54.778Z,42.63
2018-04-17T10:02:00.599Z,42.56
2018-04-17T10:03:05.520Z,42.85
2018-04-17T10:04:10.298Z,42.42
2018-04-17T10:05:15.019Z,42.31
2018-04-17T10:06:19.745Z,42.08
2018-04-17T10:07:25.927Z,41.83
2018-04-17T10:08:30.532Z,41.64
2018-04-17T10:09:36.006Z,41.50
2018-04-17T10:10:40.633Z,41.68
2018-04-17T10:11:46.715Z,41.74
2018-04-17T10:12:51.769Z,41.59
2018-04-17T10:13:56.335Z,41.42
2018-04-17T10:15:03.267Z,40.80
2018-04-17T10:16:08.633Z,40.37
2018-04-17T10:17:13.513Z,40.01
2018-04-17T10:18:18.282Z,39.70
2018-04-17T10:19:24.447Z,39.47
2018-04-17T10:20:29.171Z,39.08
2018-04-17T10:21:33.798Z,38.67
2018-04-17T10:22:38.471Z,38.64
2018-04-17T10:23:43.289Z,38.13
2018-04-17T10:24:47.905Z,38.20
2018-04-17T10:25:52.889Z,38.56
2018-04-17T10:26:57.475Z,38.29
2018-04-17T10:28:02.009Z,38.02
2018-04-17T10:29:06.526Z,37.89
2018-04-17T10:30:11.245Z,37.51
2018-04-17T10:31:16.107Z,37.66
2018-04-17T10:32:21.386Z,37.99
2018-04-17T10:33:26.092Z,38.33
2018-04-17T10:34:31.134Z,38.61
2018-04-17T10:35:35.807Z,38.70
2018-04-17T10:36:40.837Z,38.75
2018-04-17T10:37:47.190Z,38.64
2018-04-17T10:38:53.294Z,38.50
2018-04-17T10:39:59.071Z,38.44
2018-04-17T10:41:04.596Z,38.52
2018-04-17T10:42:09.403Z,38.52
2018-04-17T10:43:14.036Z,38.66
2018-04-17T10:44:18.775Z,38.91
2018-04-17T10:45:24.700Z,39.05
2018-04-17T10:46:29.584Z,38.80
2018-04-17T10:47:34.857Z,38.64
2018-04-17T10:48:40.444Z,38.94
2018-04-17T10:49:45.210Z,38.89
2018-04-17T10:50:51.599Z,38.65
2018-04-17T10:51:56.353Z,38.50
2018-04-17T10:53:02.665Z,38.89
2018-04-17T10:54:08.540Z,39.10
2018-04-17T10:55:13.422Z,39.54
2018-04-17T10:56:19.752Z,39.54
2018-04-17T10:57:25.152Z,39.33
2018-04-17T10:58:31.508Z,39.65
2018-04-17T10:59:36.779Z,39.93
2018-04-17T11:00:42.603Z,39.55
2018-04-17T11:01:48.495Z,39.69
2018-04-17T11:02:53.158Z,39.68
2018-04-17T11:03:58.846Z,39.76
2018-04-17T11:05:03.599Z,39.76
2018-04-17T11:06:08.834Z,39.72
2018-04-17T11:07:14.600Z,39.83
2018-04-17T11:08:19.856Z,39.65
2018-04-17T11:09:24.524Z,39.75
2018-04-17T11:10:29.206Z,39.64
2018-04-17T11:11:33.892Z,39.31
2018-04-17T11:12:39.070Z,39.12
2018-04-17T11:13:44.351Z,38.87
2018-04-17T11:14:49.406Z,39.25
2018-04-17T11:15:53.934Z,39.41
2018-04-17T11:16:58.579Z,39.34
2018-04-17T11:18:04.690Z,39.07
2018-04-17T11:19:10.282Z,38.91
2018-04-17T11:20:14.902Z,38.95
2018-04-17T11:21:20.444Z,38.45
2018-04-17T11:22:25.071Z,38.10
2018-04-17T11:23:29.902Z,38.23
2018-04-17T11:24:35.583Z,38.14
2018-04-17T11:25:40.377Z,37.78
2018-04-17T11:26:45.041Z,37.73
2018-04-17T11:27:50.050Z,37.68
2018-04-17T11:28:55.472Z,37.52
2018-04-17T11:30:00.159Z,37.39
2018-04-17T11:31:11.763Z,37.59
2018-04-17T11:32:16.494Z,37.52
2018-04-17T11:33:21.162Z,37.87
2018-04-17T11:34:27.572Z,38.10
2018-04-17T11:35:32.456Z,38.12
2018-04-17T11:36:37.400Z,38.48
2018-04-17T11:37:42.855Z,38.71
2018-04-17T11:38:48.358Z,38.70
2018-04-17T11:39:53.719Z,38.67
2018-04-17T11:40:58.965Z,38.78
2018-04-17T11:42:04.210Z,38.83
2018-04-17T11:43:09.000Z,38.97
2018-04-17T11:44:13.717Z,38.92
2018-04-17T11:45:18.365Z,38.77
2018-04-17T11:46:24.149Z,38.65
2018-04-17T11:47:29.677Z,38.58
2018-04-17T11:48:34.403Z,38.51
2018-04-17T11:49:40.576Z,38.63
2018-04-17T11:50:45.808Z,38.31
2018-04-17T11:51:50.782Z,37.82
2018-04-17T11:52:55.485Z,37.78
2018-04-17T11:54:01.351Z,38.03
2018-04-17T11:55:06.002Z,38.43
2018-04-17T11:56:10.701Z,38.37
2018-04-17T11:57:15.732Z,38.38
2018-04-17T11:58:21.047Z,38.25
2018-04-17T11:59:25.905Z,38.07
2018-04-17T12:00:32.011Z,38.33
2018-04-17T12:01:37.299Z,38.49
2018-04-17T12:02:42.966Z,38.12
2018-04-17T12:03:47.754Z,37.74
2018-04-17T12:04:52.781Z,37.22
2018-04-17T12:05:57.489Z,36.93
2018-04-17T12:07:02.612Z,36.69
2018-04-17T12:08:07.544Z,36.83
2018-04-17T12:09:13.165Z,36.71
2018-04-17T12:10:18.308Z,36.62
2018-04-17T12:11:24.859Z,36.51
2018-04-17T12:12:30.458Z,36.52
2018-04-17T12:13:35.592Z,36.55
2018-04-17T12:14:41.215Z,36.74
2018-04-17T12:15:46.243Z,37.32
2018-04-17T12:16:51.862Z,37.32
2018-04-17T12:17:57.618Z,37.45
2018-04-17T12:19:04.178Z,37.43
2018-04-17T12:20:09.713Z,37.12
2018-04-17T12:21:15.897Z,37.10
2018-04-17T12:22:21.569Z,37.39
2018-04-17T12:23:27.154Z,37.74
2018-04-17T12:24:32.879Z,37.67
2018-04-17T12:25:37.903Z,37.63
2018-04-17T12:26:44.165Z,37.59
2018-04-17T12:27:49.798Z,37.26
2018-04-17T12:28:55.367Z,37.22
2018-04-17T12:30:00.812Z,37.07
2018-04-17T12:31:05.784Z,36.81
2018-04-17T12:32:10.716Z,36.58
2018-04-17T12:33:16.028Z,36.47
2018-04-17T12:34:21.377Z,36.16
2018-04-17T12:35:28.059Z,35.86
2018-04-17T12:36:32.840Z,36.02
2018-04-17T12:37:37.735Z,36.35
2018-04-17T12:38:46.922Z,36.54
2018-04-17T12:39:52.751Z,36.34
2018-04-17T12:40:57.818Z,36.46
2018-04-17T12:42:02.422Z,36.09
2018-04-17T12:43:07.345Z,35.64
2018-04-17T12:44:12.255Z,35.39
2018-04-17T12:45:17.492Z,35.11
2018-04-17T12:46:22.056Z,34.67
2018-04-17T12:47:26.817Z,34.59
2018-04-17T12:48:31.485Z,34.93
2018-04-17T12:49:36.785Z,35.12
2018-04-17T12:50:41.481Z,34.81
2018-04-17T12:51:47.758Z,34.66
2018-04-17T12:52:52.552Z,35.04
2018-04-17T12:53:57.150Z,35.53
2018-04-17T12:55:02.099Z,36.05
2018-04-17T12:56:07.196Z,36.18
2018-04-17T12:57:12.293Z,36.10
2018-04-17T12:58:17.709Z,35.95
2018-04-17T12:59:25.479Z,35.68
2018-04-17T13:00:32.211Z,35.63
2018-04-17T13:01:36.711Z,35.51
2018-04-17T13:02:41.329Z,35.72
2018-04-17T13:03:47.636Z,36.04
2018-04-17T13:04:52.620Z,36.25
2018-04-17T13:05:57.178Z,36.26
2018-04-17T13:07:01.690Z,36.20
2018-04-17T13:08:06.285Z,36.00
2018-04-17T13:09:14.114Z,35.54
2018-04-17T13:10:19.043Z,35.55
2018-04-17T13:11:24.203Z,35.01
2018-04-17T13:12:28.937Z,35.44
2018-04-17T13:13:33.659Z,35.70
2018-04-17T13:14:38.482Z,35.49
2018-04-17T13:15:43.194Z,35.19
2018-04-17T13:16:47.921Z,35.12
2018-04-17T13:17:54.397Z,35.26
2018-04-17T13:18:59.079Z,35.49
2018-04-17T13:20:05.622Z,35.25
2018-04-17T13:21:11.422Z,34.86
2018-04-17T13:22:17.909Z,34.60
2018-04-17T13:23:23.654Z,34.47
2018-04-17T13:24:28.476Z,33.96
2018-04-17T13:25:34.711Z,33.38
2018-04-17T13:26:41.101Z,33.48
2018-04-17T13:27:48.070Z,33.86
2018-04-17T13:28:54.013Z,33.72
2018-04-17T13:30:00.201Z,33.34
2018-04-17T13:31:04.865Z,33.87
2018-04-17T13:32:10.504Z,33.95
2018-04-17T13:33:16.648Z,33.63
2018-04-17T13:34:22.535Z,33.21
2018-04-17T13:35:27.871Z,32.66
2018-04-17T13:36:34.063Z,32.75
2018-04-17T13:37:38.742Z,33.28
2018-04-17T13:38:43.439Z,33.94
2018-04-17T13:39:49.052Z,34.31
2018-04-17T13:43:04.061Z,33.98
2018-04-17T13:44:09.665Z,33.91
2018-04-17T13:45:15.223Z,33.78
2018-04-17T13:46:19.993Z,33.56
2018-04-17T13:47:26.058Z,34.03
2018-04-17T13:48:30.881Z,33.91
2018-04-17T13:49:37.441Z,33.86
2018-04-17T13:50:42.466Z,33.75
2018-04-17T13:51:49.563Z,33.69
2018-04-17T13:52:54.460Z,33.62
2018-04-17T13:54:00.843Z,33.22
2018-04-17T13:55:06.079Z,32.90
2018-04-17T13:56:10.743Z,32.99
2018-04-17T13:57:16.324Z,32.90
2018-04-17T13:58:21.745Z,32.80
2018-04-17T13:59:27.169Z,33.31
2018-04-17T14:00:32.124Z,33.04
2018-04-17T14:01:38.099Z,32.99
2018-04-17T14:02:45.987Z,32.70
2018-04-17T14:03:50.837Z,32.43
2018-04-17T14:04:56.000Z,32.30